createdAt,value
2023-01-22T00:00:31.239Z,7.88
2023-01-22T00:05:32.528Z,5.90
2023-01-22T00:10:33.811Z,6.53
2023-01-22T00:15:38.240Z,5.80
2023-01-22T00:20:41.615Z,6.50
2023-01-22T00:25:43.424Z,6.40
2023-01-22T00:30:44.708Z,6.60
2023-01-22T00:35:45.976Z,6.40
2023-01-22T00:40:47.246Z,6.70
2023-01-22T00:45:48.587Z,6.78
2023-01-22T00:50:49.970Z,6.85
2023-01-22T00:55:52.484Z,6.95
2023-01-22T01:00:54.372Z,6.32
2023-01-22T01:06:10.289Z,6.10
2023-01-22T01:11:13.304Z,6.40
2023-01-22T01:16:34.858Z,7.15
2023-01-22T01:21:36.210Z,6.18
2023-01-22T01:26:38.988Z,6.78
2023-01-22T01:31:40.249Z,6.03
2023-01-22T01:36:48.787Z,6.70
2023-01-22T01:41:51.296Z,8.07
2023-01-22T01:46:57.571Z,7.28
2023-01-22T01:52:06.428Z,7.45
2023-01-22T01:57:11.396Z,6.83
2023-01-22T02:02:12.750Z,7.30
2023-01-22T02:07:14.063Z,7.65
2023-01-22T02:12:15.381Z,6.68
2023-01-22T02:17:19.487Z,7.25
2023-01-22T02:22:21.968Z,8.53
2023-01-22T02:27:23.387Z,7.75
2023-01-22T02:32:24.714Z,8.38
2023-01-22T02:37:26.125Z,8.25
2023-01-22T02:42:28.028Z,8.57
2023-01-22T02:47:29.374Z,9.27
2023-01-22T02:52:30.683Z,10.02
2023-01-22T02:57:32.168Z,9.00
2023-01-22T03:02:33.490Z,10.65
2023-01-22T03:07:42.704Z,9.05
2023-01-22T03:13:02.983Z,8.43
2023-01-22T03:18:22.779Z,9.15
2023-01-22T03:23:27.818Z,9.32
2023-01-22T03:28:29.166Z,8.35
2023-01-22T03:33:30.637Z,8.88
2023-01-22T03:38:32.026Z,9.10
2023-01-22T03:43:33.921Z,9.43
2023-01-22T03:48:35.277Z,9.30
2023-01-22T03:53:36.711Z,9.43
2023-01-22T03:58:38.075Z,9.60
2023-01-22T04:03:39.476Z,8.97
2023-01-22T04:08:41.684Z,8.30
2023-01-22T04:13:43.637Z,9.43
2023-01-22T04:18:45.055Z,9.07
2023-01-22T04:23:46.346Z,9.38
2023-01-22T04:28:47.660Z,8.87
2023-01-22T04:33:48.892Z,8.82
2023-01-22T04:38:50.124Z,8.75
2023-01-22T04:43:51.403Z,9.48
2023-01-22T04:48:52.644Z,8.98
2023-01-22T04:53:53.928Z,8.17
2023-01-22T04:58:55.309Z,8.32
2023-01-22T05:03:56.598Z,9.15
2023-01-22T05:08:57.851Z,8.20
2023-01-22T05:13:59.076Z,7.80
2023-01-22T05:19:00.370Z,8.13
2023-01-22T05:24:01.611Z,7.85
2023-01-22T05:29:02.972Z,7.72
2023-01-22T05:34:04.413Z,7.93
2023-01-22T05:39:05.707Z,7.55
2023-01-22T05:44:07.244Z,8.07
2023-01-22T05:49:08.595Z,7.75
2023-01-22T05:54:10.011Z,7.68
2023-01-22T05:59:11.616Z,8.40
2023-01-22T06:04:12.825Z,8.40
2023-01-22T06:09:14.145Z,8.03
2023-01-22T06:14:15.484Z,6.97
2023-01-22T06:19:16.783Z,6.75
2023-01-22T06:24:18.506Z,6.55
2023-01-22T06:29:19.797Z,5.47
2023-01-22T06:34:21.054Z,5.33
2023-01-22T06:39:22.472Z,5.38
2023-01-22T06:44:23.788Z,6.05
2023-01-22T06:49:25.087Z,5.47
2023-01-22T06:54:26.326Z,5.80
2023-01-22T06:59:27.584Z,7.03
2023-01-22T07:04:28.864Z,8.13
2023-01-22T07:09:30.175Z,6.43
2023-01-22T07:14:36.725Z,5.65
2023-01-22T07:19:38.317Z,5.53
2023-01-22T07:24:39.587Z,5.90
2023-01-22T07:29:40.827Z,6.93
2023-01-22T07:34:42.113Z,7.38
2023-01-22T07:39:43.341Z,7.82
2023-01-22T07:44:44.581Z,6.75
2023-01-22T07:49:45.889Z,6.63
2023-01-22T07:54:47.233Z,9.43
2023-01-22T07:59:48.500Z,13.07
2023-01-22T08:04:49.781Z,6.60
2023-01-22T08:09:51.076Z,8.85
2023-01-22T08:14:52.350Z,8.37
2023-01-22T08:19:53.708Z,7.38
2023-01-22T08:24:55.295Z,7.53
2023-01-22T08:29:56.551Z,7.72
2023-01-22T08:34:57.858Z,7.50
2023-01-22T08:39:59.121Z,7.30
2023-01-22T08:45:00.395Z,9.18
2023-01-22T08:50:02.724Z,7.25
2023-01-22T08:55:06.662Z,7.03
2023-01-22T09:00:08.630Z,7.63
2023-01-22T09:05:10.038Z,6.57
2023-01-22T09:10:12.779Z,6.18
2023-01-22T09:15:15.076Z,7.00
2023-01-22T09:20:17.033Z,5.10
2023-01-22T09:25:18.503Z,7.07
2023-01-22T09:30:20.243Z,6.60
2023-01-22T09:35:22.010Z,6.28
2023-01-22T09:40:39.781Z,6.43
2023-01-22T09:45:41.183Z,9.77
2023-01-22T09:50:42.805Z,8.68
2023-01-22T09:55:46.137Z,6.50
2023-01-22T10:00:47.475Z,8.68
2023-01-22T10:05:51.340Z,8.93
2023-01-22T10:10:52.736Z,9.13
2023-01-22T10:15:54.636Z,7.97
2023-01-22T10:20:57.103Z,10.07
2023-01-22T10:26:10.896Z,13.25
2023-01-22T10:31:31.848Z,7.53
2023-01-22T10:36:33.213Z,6.80
2023-01-22T10:41:34.569Z,7.95
2023-01-22T10:46:35.904Z,6.97
2023-01-22T10:51:42.138Z,6.72
2023-01-22T10:56:43.796Z,10.60
2023-01-22T11:01:48.065Z,10.80
2023-01-22T11:06:51.511Z,5.53
2023-01-22T11:12:15.904Z,11.43
2023-01-22T11:17:23.590Z,6.32
2023-01-22T11:22:27.486Z,7.40
2023-01-22T11:27:31.932Z,5.35
2023-01-22T11:32:46.638Z,7.53
2023-01-22T11:38:06.347Z,6.70
2023-01-22T11:43:20.613Z,4.32
2023-01-22T11:48:44.974Z,5.03
2023-01-22T11:54:05.162Z,5.68
2023-01-22T11:59:25.391Z,16.48
2023-01-22T12:04:45.519Z,11.63
2023-01-22T12:09:57.614Z,6.63
2023-01-22T12:15:17.827Z,5.90
2023-01-22T12:20:38.248Z,7.22
2023-01-22T12:25:51.364Z,7.70
2023-01-22T12:31:03.524Z,5.60
2023-01-22T12:36:06.317Z,10.52
2023-01-22T12:41:07.662Z,7.45
2023-01-22T12:46:12.201Z,5.63
2023-01-22T12:51:32.276Z,8.93
2023-01-22T12:56:33.831Z,7.20
2023-01-22T13:01:35.724Z,6.75
2023-01-22T13:06:38.250Z,6.55
2023-01-22T13:11:39.825Z,4.80
2023-01-22T13:16:41.525Z,6.07
2023-01-22T13:21:42.982Z,5.70
2023-01-22T13:26:52.143Z,4.88
2023-01-22T13:31:54.130Z,8.70
2023-01-22T13:36:55.620Z,6.20
2023-01-22T13:41:58.708Z,5.40
2023-01-22T13:47:00.125Z,5.73
2023-01-22T13:52:06.008Z,6.68
2023-01-22T13:57:07.323Z,5.28
2023-01-22T14:02:28.668Z,5.20
2023-01-22T14:07:29.980Z,7.10
2023-01-22T14:12:31.284Z,6.30
2023-01-22T14:17:36.417Z,7.68
2023-01-22T14:22:37.889Z,6.88
2023-01-22T14:27:41.512Z,7.68
2023-01-22T14:32:43.157Z,6.82
2023-01-22T14:37:44.848Z,7.60
2023-01-22T14:42:46.865Z,12.15
2023-01-22T14:47:52.371Z,9.65
2023-01-22T14:52:53.868Z,10.05
2023-01-22T14:57:57.283Z,9.35
2023-01-22T15:02:59.225Z,6.70
2023-01-22T15:08:01.423Z,5.85
2023-01-22T15:13:02.666Z,7.68
2023-01-22T15:18:03.967Z,5.63
2023-01-22T15:23:05.266Z,5.60
2023-01-22T15:28:06.544Z,6.87
2023-01-22T15:33:07.829Z,5.00
2023-01-22T15:38:09.136Z,4.85
2023-01-22T15:43:10.447Z,5.78
2023-01-22T15:48:13.852Z,8.05
2023-01-22T15:53:15.163Z,7.80
2023-01-22T15:58:16.439Z,6.85
2023-01-22T16:03:17.690Z,6.63
2023-01-22T16:08:18.982Z,8.38
2023-01-22T16:13:20.257Z,9.25
2023-01-22T16:18:21.571Z,8.90
2023-01-22T16:23:22.849Z,8.25
2023-01-22T16:28:24.275Z,6.45
2023-01-22T16:33:27.764Z,6.85
2023-01-22T16:38:29.423Z,6.45
2023-01-22T16:43:30.699Z,5.97
2023-01-22T16:48:32.024Z,6.90
2023-01-22T16:53:33.604Z,6.55
2023-01-22T16:58:34.859Z,7.70
2023-01-22T17:03:36.137Z,9.73
2023-01-22T17:08:37.460Z,6.73
2023-01-22T17:13:38.759Z,7.20
2023-01-22T17:18:40.014Z,7.22
2023-01-22T17:23:41.420Z,7.13
2023-01-22T17:28:42.705Z,7.15
2023-01-22T17:33:44.450Z,6.53
2023-01-22T17:38:45.858Z,6.72
2023-01-22T17:43:47.792Z,7.20
2023-01-22T17:48:50.951Z,7.65
2023-01-22T17:53:52.807Z,6.45
2023-01-22T17:58:55.419Z,5.97
2023-01-22T18:03:57.760Z,6.93
2023-01-22T18:08:59.081Z,8.02
2023-01-22T18:14:02.009Z,8.13
2023-01-22T18:19:05.531Z,9.82
2023-01-22T18:24:08.108Z,13.03
2023-01-22T18:29:09.909Z,12.95
2023-01-22T18:34:13.582Z,9.13
2023-01-22T18:39:16.387Z,8.93
2023-01-22T18:44:19.508Z,10.18
2023-01-22T18:49:22.795Z,7.50
2023-01-22T18:54:24.248Z,8.43
2023-01-22T18:59:25.591Z,7.60
2023-01-22T19:04:28.673Z,9.30
2023-01-22T19:09:31.641Z,10.45
2023-01-22T19:14:33.050Z,11.00
2023-01-22T19:19:34.312Z,10.45
2023-01-22T19:24:35.564Z,15.35
2023-01-22T19:29:36.793Z,13.70
2023-01-22T19:34:38.225Z,11.80
2023-01-22T19:39:41.741Z,19.10
2023-01-22T19:44:43.163Z,16.45
2023-01-22T19:49:44.554Z,17.88
2023-01-22T19:54:48.123Z,18.08
2023-01-22T19:59:58.168Z,21.10
2023-01-22T20:04:59.473Z,21.07
2023-01-22T20:10:00.785Z,19.23
2023-01-22T20:15:02.227Z,19.10
2023-01-22T20:20:04.979Z,14.93
2023-01-22T20:25:08.025Z,11.70
2023-01-22T20:30:09.628Z,10.63
2023-01-22T20:35:15.372Z,9.43
2023-01-22T20:40:16.858Z,9.35
2023-01-22T20:45:18.481Z,8.80
2023-01-22T20:50:19.998Z,8.63
2023-01-22T20:55:21.411Z,8.67
2023-01-22T21:00:22.740Z,9.07
2023-01-22T21:05:24.077Z,8.90
2023-01-22T21:10:25.452Z,8.48
2023-01-22T21:15:26.943Z,8.60
2023-01-22T21:20:28.261Z,9.00
2023-01-22T21:25:29.565Z,9.10
2023-01-22T21:30:30.995Z,9.10
2023-01-22T21:35:32.282Z,10.55
2023-01-22T21:40:33.598Z,10.02
2023-01-22T21:45:53.454Z,10.33
2023-01-22T21:50:54.937Z,8.82
2023-01-22T21:55:56.228Z,8.32
2023-01-22T22:01:07.217Z,8.38
2023-01-22T22:06:10.488Z,9.27
2023-01-22T22:11:13.548Z,11.77
2023-01-22T22:16:15.135Z,12.68
2023-01-22T22:21:16.491Z,12.45
2023-01-22T22:26:18.203Z,11.85
2023-01-22T22:31:19.950Z,10.70
2023-01-22T22:36:22.822Z,10.73
2023-01-22T22:41:25.747Z,10.93
2023-01-22T22:46:27.051Z,11.02
2023-01-22T22:51:30.100Z,9.77
2023-01-22T22:56:31.768Z,9.93
2023-01-22T23:01:33.222Z,9.73
2023-01-22T23:06:35.752Z,9.55
2023-01-22T23:11:37.206Z,9.18
2023-01-22T23:16:40.348Z,8.90
2023-01-22T23:21:42.055Z,8.75
2023-01-22T23:26:44.045Z,8.40
2023-01-22T23:31:45.470Z,8.40
2023-01-22T23:36:47.835Z,7.47
2023-01-22T23:41:49.476Z,8.07
2023-01-22T23:46:50.722Z,8.48
2023-01-22T23:51:52.010Z,8.80
2023-01-22T23:56:53.336Z,13.85
